THY52 LTFM-VTBS
Flight info
| Callsign | THY52 |
|---|---|
| Flight time | N/A |
| Altitude | 27000 |
| Route | VICEN T380 ASMAP/N0483F370 UL333 LATGA UT363 GURBU DCT REBLO M11 MATAL T916 SUBUT T923 ERLEV M11 RODAR A909 BABUM/N0491F390 A909 LEMOD N644 REGET G325 LAKRA P500 PS T400 SULOM M890 LKN R460 TEPAL/N0489F410 R460 CEA L507 IGONI DCT WILLA WILLA1C |
| Aircraft | A359/H-SDE2E3GHIJ3J4J5LM1ORWXY/LB1D1 |
Departure
| Time | N/A |
|---|---|
| Airport | İstanbul Airport (LTFM) |
Arrival
| Time | 2026-05-01 08:42 |
|---|---|
| Airport | Suvarnabhumi Airport (VTBS) |
| Time | Latitude | Longitude | Altitude | Speed | Heading |
|---|---|---|---|---|---|
| 2026-05-01 08:09 | 15.53257 | 98.54509 | 38860 ft | 464 kts | 141° |
| 2026-05-01 08:09 | 15.50804 | 98.56694 | 38859 ft | 464 kts | 141° |
| 2026-05-01 08:10 | 15.42155 | 98.66612 | 38862 ft | 467 kts | 131° |
| 2026-05-01 08:11 | 15.33992 | 98.77099 | 38859 ft | 467 kts | 131° |
| 2026-05-01 08:12 | 15.27849 | 98.84944 | 38859 ft | 467 kts | 131° |
| 2026-05-01 08:13 | 15.23509 | 98.90475 | 38860 ft | 466 kts | 130° |
| 2026-05-01 08:13 | 15.17361 | 98.98316 | 38860 ft | 467 kts | 131° |
| 2026-05-01 08:14 | 15.13255 | 99.03535 | 38862 ft | 467 kts | 131° |
| 2026-05-01 08:14 | 15.09150 | 99.08752 | 38861 ft | 467 kts | 131° |
| 2026-05-01 08:15 | 15.03015 | 99.16546 | 38456 ft | 468 kts | 131° |
| 2026-05-01 08:15 | 15.00939 | 99.19185 | 38200 ft | 468 kts | 131° |
| 2026-05-01 08:16 | 14.98880 | 99.21799 | 37953 ft | 468 kts | 131° |
| 2026-05-01 08:16 | 14.96848 | 99.24377 | 37617 ft | 470 kts | 131° |
| 2026-05-01 08:16 | 14.94787 | 99.26989 | 37126 ft | 468 kts | 131° |
| 2026-05-01 08:16 | 14.92744 | 99.29581 | 36629 ft | 465 kts | 131° |
| 2026-05-01 08:17 | 14.90701 | 99.32168 | 36119 ft | 462 kts | 131° |
| 2026-05-01 08:17 | 14.88668 | 99.34745 | 35530 ft | 462 kts | 130° |
| 2026-05-01 08:17 | 14.86634 | 99.37322 | 34905 ft | 464 kts | 130° |
| 2026-05-01 08:17 | 14.84626 | 99.39865 | 34297 ft | 468 kts | 130° |
| 2026-05-01 08:18 | 14.82550 | 99.42491 | 33682 ft | 473 kts | 130° |
| 2026-05-01 08:18 | 14.78358 | 99.47794 | 32433 ft | 478 kts | 130° |
| 2026-05-01 08:19 | 14.74146 | 99.53120 | 31188 ft | 480 kts | 130° |
| 2026-05-01 08:19 | 14.72021 | 99.55804 | 30563 ft | 482 kts | 130° |
| 2026-05-01 08:19 | 14.69900 | 99.58484 | 29940 ft | 483 kts | 130° |
| 2026-05-01 08:19 | 14.67769 | 99.61176 | 29311 ft | 482 kts | 130° |
| 2026-05-01 08:20 | 14.65682 | 99.63811 | 28706 ft | 479 kts | 130° |
| 2026-05-01 08:20 | 14.63574 | 99.66471 | 28073 ft | 477 kts | 130° |
| 2026-05-01 08:20 | 14.61475 | 99.69121 | 27446 ft | 475 kts | 130° |
| 2026-05-01 08:20 | 14.59392 | 99.71749 | 26822 ft | 472 kts | 130° |
| 2026-05-01 08:21 | 14.57324 | 99.74358 | 26203 ft | 469 kts | 130° |
| 2026-05-01 08:21 | 14.55258 | 99.76962 | 25577 ft | 465 kts | 130° |
| 2026-05-01 08:21 | 14.53212 | 99.79538 | 24946 ft | 462 kts | 130° |
| 2026-05-01 08:21 | 14.51178 | 99.82100 | 24302 ft | 459 kts | 130° |
| 2026-05-01 08:22 | 14.49160 | 99.84644 | 23694 ft | 455 kts | 130° |
| 2026-05-01 08:22 | 14.47165 | 99.87156 | 23070 ft | 451 kts | 130° |
| 2026-05-01 08:22 | 14.45259 | 99.89640 | 22427 ft | 432 kts | 125° |
| 2026-05-01 08:22 | 14.43905 | 99.92363 | 21810 ft | 425 kts | 109° |
| 2026-05-01 08:23 | 14.43091 | 99.95243 | 21188 ft | 422 kts | 105° |
| 2026-05-01 08:23 | 14.42376 | 99.98164 | 20581 ft | 418 kts | 104° |
| 2026-05-01 08:23 | 14.41667 | 100.01079 | 19948 ft | 420 kts | 104° |
| 2026-05-01 08:23 | 14.40953 | 100.03991 | 19322 ft | 417 kts | 104° |
| 2026-05-01 08:24 | 14.40038 | 100.06820 | 18690 ft | 413 kts | 115° |
| 2026-05-01 08:24 | 14.38793 | 100.09473 | 18074 ft | 410 kts | 117° |
| 2026-05-01 08:24 | 14.37495 | 100.12088 | 17452 ft | 408 kts | 117° |
| 2026-05-01 08:24 | 14.36203 | 100.14686 | 16822 ft | 405 kts | 117° |
| 2026-05-01 08:25 | 14.34938 | 100.17242 | 16161 ft | 391 kts | 117° |
| 2026-05-01 08:25 | 14.33740 | 100.19668 | 15750 ft | 368 kts | 117° |
| 2026-05-01 08:25 | 14.32595 | 100.21991 | 15299 ft | 362 kts | 117° |
| 2026-05-01 08:25 | 14.31452 | 100.24308 | 14902 ft | 362 kts | 117° |
| 2026-05-01 08:26 | 14.30314 | 100.26614 | 14530 ft | 360 kts | 117° |
| 2026-05-01 08:26 | 14.29195 | 100.28884 | 14164 ft | 358 kts | 117° |
| 2026-05-01 08:26 | 14.28070 | 100.31165 | 13787 ft | 356 kts | 117° |
| 2026-05-01 08:26 | 14.26949 | 100.33438 | 13428 ft | 354 kts | 117° |
| 2026-05-01 08:27 | 14.25837 | 100.35691 | 13071 ft | 351 kts | 117° |
| 2026-05-01 08:27 | 14.24732 | 100.37930 | 12712 ft | 350 kts | 118° |
| 2026-05-01 08:27 | 14.23634 | 100.40153 | 12454 ft | 348 kts | 118° |
| 2026-05-01 08:27 | 14.22538 | 100.42374 | 12139 ft | 346 kts | 118° |
| 2026-05-01 08:28 | 14.21456 | 100.44565 | 11859 ft | 338 kts | 118° |
| 2026-05-01 08:28 | 14.20403 | 100.46681 | 11633 ft | 324 kts | 118° |
| 2026-05-01 08:28 | 14.19388 | 100.48722 | 11387 ft | 315 kts | 117° |
| 2026-05-01 08:28 | 14.18408 | 100.50717 | 11057 ft | 310 kts | 117° |
| 2026-05-01 08:29 | 14.17460 | 100.52658 | 10739 ft | 301 kts | 117° |
| 2026-05-01 08:29 | 14.16543 | 100.54517 | 10393 ft | 299 kts | 118° |
| 2026-05-01 08:29 | 14.15594 | 100.56430 | 10118 ft | 300 kts | 118° |
| 2026-05-01 08:29 | 14.14645 | 100.58338 | 9704 ft | 295 kts | 118° |
| 2026-05-01 08:30 | 14.13740 | 100.60161 | 9423 ft | 277 kts | 118° |
| 2026-05-01 08:30 | 14.12888 | 100.61880 | 9161 ft | 263 kts | 117° |
| 2026-05-01 08:30 | 14.12066 | 100.63551 | 8924 ft | 259 kts | 117° |
| 2026-05-01 08:30 | 14.11246 | 100.65212 | 8695 ft | 260 kts | 117° |
| 2026-05-01 08:31 | 14.10429 | 100.66863 | 8440 ft | 258 kts | 117° |
| 2026-05-01 08:31 | 14.09629 | 100.68474 | 8187 ft | 257 kts | 117° |
| 2026-05-01 08:31 | 14.09086 | 100.69571 | 8022 ft | 256 kts | 117° |
| 2026-05-01 08:31 | 14.08343 | 100.71072 | 7758 ft | 253 kts | 117° |
| 2026-05-01 08:32 | 14.07543 | 100.72686 | 7495 ft | 254 kts | 117° |
| 2026-05-01 08:32 | 14.06745 | 100.74288 | 7305 ft | 248 kts | 118° |
| 2026-05-01 08:32 | 14.05975 | 100.75836 | 7147 ft | 235 kts | 117° |
| 2026-05-01 08:32 | 14.05258 | 100.77278 | 6949 ft | 217 kts | 118° |
| 2026-05-01 08:33 | 14.04582 | 100.78640 | 6520 ft | 212 kts | 117° |
| 2026-05-01 08:33 | 14.03927 | 100.79964 | 6239 ft | 205 kts | 120° |
| 2026-05-01 08:33 | 14.03224 | 100.81260 | 6092 ft | 210 kts | 123° |
| 2026-05-01 08:33 | 14.02504 | 100.82548 | 5925 ft | 203 kts | 121° |
| 2026-05-01 08:34 | 14.01643 | 100.83615 | 5656 ft | 194 kts | 143° |
| 2026-05-01 08:34 | 14.00353 | 100.84120 | 5525 ft | 208 kts | 174° |
| 2026-05-01 08:34 | 13.98948 | 100.83978 | 5318 ft | 200 kts | 192° |
| 2026-05-01 08:34 | 13.97607 | 100.83631 | 5039 ft | 198 kts | 194° |
| 2026-05-01 08:35 | 13.96280 | 100.83267 | 4790 ft | 197 kts | 194° |
| 2026-05-01 08:35 | 13.94951 | 100.82911 | 4535 ft | 198 kts | 194° |
| 2026-05-01 08:35 | 13.93628 | 100.82556 | 4306 ft | 196 kts | 194° |
| 2026-05-01 08:35 | 13.92305 | 100.82208 | 4099 ft | 196 kts | 194° |
| 2026-05-01 08:36 | 13.90987 | 100.81858 | 3897 ft | 195 kts | 194° |
| 2026-05-01 08:36 | 13.89674 | 100.81509 | 3688 ft | 195 kts | 194° |
| 2026-05-01 08:36 | 13.88365 | 100.81161 | 3482 ft | 195 kts | 194° |
| 2026-05-01 08:36 | 13.87055 | 100.80814 | 3284 ft | 194 kts | 194° |
| 2026-05-01 08:37 | 13.85758 | 100.80473 | 3085 ft | 190 kts | 194° |
| 2026-05-01 08:37 | 13.84480 | 100.80139 | 2923 ft | 186 kts | 194° |
| 2026-05-01 08:37 | 13.83273 | 100.79820 | 2751 ft | 171 kts | 194° |
| 2026-05-01 08:37 | 13.82162 | 100.79546 | 2521 ft | 158 kts | 199° |
| 2026-05-01 08:38 | 13.81143 | 100.79268 | 2355 ft | 144 kts | 193° |
| 2026-05-01 08:38 | 13.80183 | 100.79022 | 2260 ft | 142 kts | 194° |
| 2026-05-01 08:38 | 13.79226 | 100.78765 | 2063 ft | 142 kts | 195° |
| 2026-05-01 08:38 | 13.78263 | 100.78511 | 1863 ft | 142 kts | 194° |
| 2026-05-01 08:39 | 13.77345 | 100.78268 | 1682 ft | 143 kts | 195° |
| 2026-05-01 08:39 | 13.76381 | 100.78011 | 1488 ft | 143 kts | 195° |
| 2026-05-01 08:39 | 13.75430 | 100.77760 | 1297 ft | 142 kts | 194° |
| 2026-05-01 08:39 | 13.74474 | 100.77501 | 1101 ft | 142 kts | 196° |
| 2026-05-01 08:40 | 13.72553 | 100.76972 | 763 ft | 144 kts | 194° |
| 2026-05-01 08:40 | 13.71580 | 100.76735 | 565 ft | 143 kts | 194° |
| 2026-05-01 08:40 | 13.70625 | 100.76483 | 372 ft | 141 kts | 196° |
| 2026-05-01 08:41 | 13.69671 | 100.76232 | 170 ft | 142 kts | 194° |
| 2026-05-01 08:41 | 13.68722 | 100.75982 | 38 ft | 136 kts | 195° |
| 2026-05-01 08:41 | 13.67866 | 100.75759 | 22 ft | 115 kts | 195° |
| 2026-05-01 08:41 | 13.67282 | 100.75607 | 22 ft | 68 kts | 195° |
| 2026-05-01 08:42 | 13.66880 | 100.75494 | 21 ft | 55 kts | 200° |
| 2026-05-01 08:42 | 13.66669 | 100.75346 | 23 ft | 23 kts | 230° |
| 2026-05-01 08:42 | 13.66709 | 100.75264 | 20 ft | 15 kts | 10° |
| 2026-05-01 08:42 | 13.66817 | 100.75292 | 19 ft | 17 kts | 14° |
| 2026-05-01 08:43 | 13.66933 | 100.75324 | 21 ft | 18 kts | 16° |
| 2026-05-01 08:43 | 13.67058 | 100.75356 | 20 ft | 19 kts | 14° |
| 2026-05-01 08:43 | 13.67190 | 100.75392 | 23 ft | 20 kts | 14° |
| 2026-05-01 08:43 | 13.67332 | 100.75429 | 21 ft | 22 kts | 14° |
| 2026-05-01 08:44 | 13.67484 | 100.75469 | 22 ft | 23 kts | 14° |
| 2026-05-01 08:44 | 13.67644 | 100.75512 | 20 ft | 24 kts | 14° |
| 2026-05-01 08:44 | 13.67813 | 100.75556 | 23 ft | 25 kts | 14° |
| 2026-05-01 08:44 | 13.67980 | 100.75600 | 20 ft | 20 kts | 14° |
| 2026-05-01 08:45 | 13.68010 | 100.75608 | 20 ft | 0 kts | 14° |
| 2026-05-01 08:45 | 13.68021 | 100.75611 | 20 ft | 4 kts | 14° |
| 2026-05-01 08:45 | 13.68061 | 100.75621 | 20 ft | 8 kts | 9° |
| 2026-05-01 08:45 | 13.68114 | 100.75598 | 20 ft | 9 kts | 313° |
| 2026-05-01 08:46 | 13.68156 | 100.75554 | 23 ft | 9 kts | 338° |
| 2026-05-01 08:46 | 13.68212 | 100.75550 | 20 ft | 10 kts | 352° |
| 2026-05-01 08:46 | 13.68257 | 100.75493 | 20 ft | 14 kts | 285° |
| 2026-05-01 08:46 | 13.68288 | 100.75369 | 24 ft | 20 kts | 283° |
| 2026-05-01 08:47 | 13.68321 | 100.75234 | 23 ft | 17 kts | 285° |
| 2026-05-01 08:47 | 13.68354 | 100.75105 | 20 ft | 20 kts | 284° |
| 2026-05-01 08:47 | 13.68385 | 100.74980 | 22 ft | 18 kts | 284° |
| 2026-05-01 08:47 | 13.68415 | 100.74857 | 20 ft | 13 kts | 285° |
| 2026-05-01 08:48 | 13.68424 | 100.74798 | 20 ft | 0 kts | 258° |
| 2026-05-01 08:48 | 13.68430 | 100.74775 | 22 ft | 8 kts | 288° |
| 2026-05-01 08:48 | 13.68416 | 100.74733 | 24 ft | 6 kts | 208° |
| 2026-05-01 08:49 | 13.68368 | 100.74720 | 20 ft | 7 kts | 194° |
| 2026-05-01 08:49 | 13.68362 | 100.74718 | 21 ft | 0 kts | 194° |
| 2026-05-01 08:53 | 13.68336 | 100.74712 | 20 ft | 0 kts | 194° |
| 2026-05-01 08:53 | 13.68353 | 100.74716 | 20 ft | 0 kts | 194° |